createdAt,value
2022-08-18T00:02:18.195Z,99.90
2022-08-18T00:07:22.625Z,99.90
2022-08-18T00:09:50.502Z,99.90
2022-08-18T00:12:22.118Z,99.90
2022-08-18T00:14:50.077Z,99.90
2022-08-18T00:17:18.560Z,99.90
2022-08-18T00:22:20.082Z,99.90
2022-08-18T00:24:51.509Z,99.90
2022-08-18T00:27:23.156Z,99.90
2022-08-18T00:29:53.010Z,99.90
2022-08-18T00:32:26.400Z,99.90
2022-08-18T00:34:54.909Z,99.90
2022-08-18T00:37:23.496Z,99.90
2022-08-18T00:39:52.778Z,99.90
2022-08-18T00:42:31.096Z,99.90
2022-08-18T00:45:05.082Z,99.90
2022-08-18T00:47:42.880Z,99.90
2022-08-18T00:50:39.846Z,99.90
2022-08-18T00:53:14.379Z,99.90
2022-08-18T00:55:51.345Z,99.90
2022-08-18T00:58:46.990Z,99.90
2022-08-18T01:01:16.274Z,99.90
2022-08-18T01:03:54.341Z,99.90
2022-08-18T01:16:31.222Z,99.90
2022-08-18T01:21:50.969Z,99.90
2022-08-18T01:24:22.177Z,99.90
2022-08-18T01:26:52.693Z,99.90
2022-08-18T01:29:20.375Z,99.90
2022-08-18T01:31:56.429Z,99.90
2022-08-18T01:34:26.446Z,99.90
2022-08-18T01:36:55.256Z,99.90
2022-08-18T01:41:21.329Z,99.90
2022-08-18T01:44:42.522Z,99.90
2022-08-18T01:47:11.655Z,99.90
2022-08-18T01:49:43.202Z,99.90
2022-08-18T01:52:16.074Z,99.90
2022-08-18T01:59:41.951Z,99.90
2022-08-18T02:02:18.445Z,99.90
2022-08-18T02:07:15.180Z,99.90
2022-08-18T02:09:43.869Z,99.90
2022-08-18T02:14:39.904Z,99.90
2022-08-18T02:17:09.010Z,99.90
2022-08-18T02:19:42.313Z,99.90
2022-08-18T02:22:11.797Z,99.90
2022-08-18T02:24:39.269Z,99.90
2022-08-18T02:27:08.097Z,99.90
2022-08-18T02:29:35.859Z,99.90
2022-08-18T02:37:00.874Z,99.90
2022-08-18T02:39:28.677Z,99.90
2022-08-18T02:46:54.552Z,99.90
2022-08-18T02:51:51.265Z,99.90
2022-08-18T02:54:20.595Z,99.90
2022-08-18T02:59:18.459Z,99.90
2022-08-18T03:01:49.019Z,99.90
2022-08-18T03:04:22.049Z,99.90
2022-08-18T03:11:48.814Z,99.90
2022-08-18T03:16:53.615Z,99.90
2022-08-18T03:34:20.745Z,99.90
2022-08-18T03:36:50.432Z,99.90
2022-08-18T03:39:19.128Z,99.90
2022-08-18T03:41:58.376Z,99.90
2022-08-18T03:44:32.669Z,99.90
2022-08-18T03:47:03.077Z,99.90
2022-08-18T03:54:32.294Z,99.90
2022-08-18T04:04:26.931Z,99.90
2022-08-18T04:06:59.054Z,99.90
2022-08-18T04:09:29.058Z,99.90
2022-08-18T04:11:57.619Z,99.90
2022-08-18T04:14:30.134Z,99.90
2022-08-18T04:16:58.329Z,99.90
2022-08-18T04:21:57.987Z,99.90
2022-08-18T04:24:28.141Z,99.90
2022-08-18T04:27:01.183Z,99.90
2022-08-18T04:39:23.318Z,99.90
2022-08-18T04:46:48.961Z,99.90
2022-08-18T04:49:19.476Z,99.90
2022-08-18T04:52:37.208Z,99.90
2022-08-18T04:59:52.468Z,99.90
2022-08-18T05:02:21.659Z,99.90
2022-08-18T05:07:19.616Z,99.90
2022-08-18T05:12:16.084Z,99.90
2022-08-18T05:14:44.852Z,99.90
2022-08-18T05:19:44.654Z,99.90
2022-08-18T05:22:19.657Z,99.90
2022-08-18T05:35:14.337Z,99.90
2022-08-18T05:38:09.304Z,99.90
2022-08-18T05:43:07.257Z,99.90
2022-08-18T05:45:35.324Z,99.90
2022-08-18T05:50:35.159Z,99.90
2022-08-18T05:53:05.673Z,99.90
2022-08-18T05:56:10.700Z,99.90
2022-08-18T05:58:51.800Z,99.90
2022-08-18T06:01:42.379Z,99.90
2022-08-18T06:04:22.818Z,99.90
2022-08-18T06:06:52.634Z,99.90
2022-08-18T06:09:48.160Z,99.90
2022-08-18T06:12:24.074Z,99.90
2022-08-18T06:17:31.148Z,99.90
2022-08-18T06:20:27.402Z,99.90
2022-08-18T06:25:58.865Z,99.90
2022-08-18T06:28:48.772Z,99.90
2022-08-18T06:36:24.784Z,99.90
2022-08-18T06:39:30.541Z,99.90
2022-08-18T06:44:50.657Z,99.90
2022-08-18T06:47:50.155Z,99.90
2022-08-18T06:50:26.660Z,99.90
2022-08-18T06:53:01.232Z,99.90
2022-08-18T06:55:46.377Z,99.90
2022-08-18T06:58:13.656Z,99.90
2022-08-18T07:01:06.623Z,99.90
2022-08-18T07:03:39.588Z,99.90
2022-08-18T07:06:21.634Z,99.90
2022-08-18T07:13:58.592Z,99.90
2022-08-18T07:19:29.895Z,99.90
2022-08-18T07:22:06.691Z,99.90
2022-08-18T07:24:45.877Z,99.90
2022-08-18T07:27:42.059Z,99.90
2022-08-18T07:31:16.434Z,99.90
2022-08-18T07:33:57.568Z,99.90
2022-08-18T07:36:39.279Z,99.90
2022-08-18T07:39:21.111Z,99.90
2022-08-18T07:41:57.604Z,99.90
2022-08-18T07:44:45.860Z,99.90
2022-08-18T07:47:34.769Z,99.90
2022-08-18T07:50:27.113Z,99.90
2022-08-18T07:53:10.652Z,99.90
2022-08-18T07:55:42.297Z,99.90
2022-08-18T08:01:00.104Z,99.90
2022-08-18T08:04:04.755Z,99.90
2022-08-18T08:07:06.252Z,99.90
2022-08-18T08:09:53.943Z,99.90
2022-08-18T08:12:32.932Z,99.90
2022-08-18T08:15:46.208Z,99.90
2022-08-18T08:18:39.587Z,99.90
2022-08-18T08:21:19.874Z,99.90
2022-08-18T08:27:28.665Z,99.90
2022-08-18T08:34:45.440Z,99.90
2022-08-18T08:35:49.051Z,99.90
2022-08-18T08:38:42.966Z,99.90
2022-08-18T08:41:49.249Z,99.90
2022-08-18T08:45:27.124Z,99.90
2022-08-18T08:48:09.225Z,99.90
2022-08-18T08:58:48.817Z,99.90
2022-08-18T09:01:55.538Z,99.90
2022-08-18T09:08:35.849Z,99.90
2022-08-18T09:11:35.172Z,99.90
2022-08-18T09:14:37.460Z,99.90
2022-08-18T09:18:05.598Z,99.90
2022-08-18T09:21:37.691Z,99.90
2022-08-18T09:24:52.378Z,99.90
2022-08-18T09:28:10.616Z,99.90
2022-08-18T09:31:21.777Z,99.90
2022-08-18T09:34:34.708Z,99.90
2022-08-18T09:38:20.772Z,99.90
2022-08-18T09:47:54.281Z,99.90
2022-08-18T09:51:44.274Z,99.90
2022-08-18T09:57:46.786Z,99.90
2022-08-18T10:01:02.179Z,99.90
2022-08-18T10:03:41.061Z,99.90
2022-08-18T10:13:45.118Z,99.90
2022-08-18T10:25:41.160Z,99.90
2022-08-18T10:28:51.990Z,99.90
2022-08-18T10:34:16.005Z,99.80
2022-08-18T10:37:06.330Z,99.90
2022-08-18T10:40:05.538Z,98.60
2022-08-18T10:46:23.717Z,98.90
2022-08-18T10:54:50.906Z,97.70
2022-08-18T10:57:44.904Z,99.10
2022-08-18T11:00:20.115Z,98.40
2022-08-18T11:05:24.542Z,96.90
2022-08-18T11:08:17.410Z,96.40
2022-08-18T11:11:24.561Z,97.90
2022-08-18T11:16:34.709Z,97.60
2022-08-18T11:19:17.106Z,96.50
2022-08-18T11:21:51.120Z,97.90
2022-08-18T11:24:23.183Z,98.40
2022-08-18T11:27:02.966Z,97.60
2022-08-18T11:29:33.526Z,98.50
2022-08-18T11:32:04.429Z,98.60
2022-08-18T11:44:47.444Z,99.90
2022-08-18T11:47:36.257Z,99.90
2022-08-18T11:50:28.552Z,99.90
2022-08-18T11:55:56.597Z,99.90
2022-08-18T11:58:50.364Z,99.90
2022-08-18T12:01:45.004Z,99.90
2022-08-18T12:04:28.993Z,99.90
2022-08-18T12:10:16.828Z,99.90
2022-08-18T12:16:46.539Z,99.90
2022-08-18T12:19:24.222Z,99.90
2022-08-18T12:22:00.607Z,99.90
2022-08-18T12:24:36.580Z,99.90
2022-08-18T12:27:21.207Z,99.90
2022-08-18T12:29:54.548Z,99.90
2022-08-18T12:32:46.619Z,99.90
2022-08-18T12:40:49.409Z,99.90
2022-08-18T12:45:47.954Z,99.90
2022-08-18T12:50:59.724Z,99.90
2022-08-18T12:53:29.456Z,99.90
2022-08-18T12:56:16.604Z,99.90
2022-08-18T13:06:41.364Z,99.90
2022-08-18T13:25:03.914Z,99.90
2022-08-18T13:27:45.256Z,99.90
2022-08-18T13:30:29.278Z,99.90
2022-08-18T13:38:19.058Z,99.90
2022-08-18T13:41:10.017Z,99.90
2022-08-18T13:44:32.684Z,99.90
2022-08-18T13:47:41.492Z,99.90
2022-08-18T13:50:12.989Z,99.90
2022-08-18T13:52:44.687Z,99.90
2022-08-18T13:55:16.794Z,99.90
2022-08-18T13:57:49.921Z,99.90
2022-08-18T14:00:29.927Z,99.90
2022-08-18T14:10:54.227Z,99.90
2022-08-18T14:13:24.534Z,99.90
2022-08-18T14:15:54.944Z,99.90
2022-08-18T14:18:28.753Z,99.90
2022-08-18T14:21:23.013Z,99.90
2022-08-18T14:29:44.797Z,99.90
2022-08-18T14:32:07.376Z,99.90
2022-08-18T14:39:37.044Z,99.90
2022-08-18T14:42:05.527Z,99.90
2022-08-18T14:47:04.810Z,99.90
2022-08-18T15:02:13.230Z,99.90
2022-08-18T15:12:44.633Z,99.90
2022-08-18T15:15:15.955Z,99.90
2022-08-18T15:20:28.769Z,99.90
2022-08-18T15:23:28.173Z,99.90
2022-08-18T15:25:56.519Z,99.90
2022-08-18T15:28:27.209Z,99.90
2022-08-18T15:38:43.274Z,99.90
2022-08-18T15:41:14.869Z,99.90
2022-08-18T15:56:16.612Z,99.90
2022-08-18T15:58:49.479Z,99.90
2022-08-18T16:01:30.570Z,99.90
2022-08-18T16:09:00.860Z,99.90
2022-08-18T16:31:28.465Z,99.90
2022-08-18T16:33:57.286Z,99.90
2022-08-18T16:36:28.410Z,99.90
2022-08-18T16:46:25.387Z,99.90
2022-08-18T16:51:22.961Z,99.90
2022-08-18T16:53:53.118Z,99.90
2022-08-18T16:56:23.680Z,99.90
2022-08-18T17:01:57.229Z,99.90
2022-08-18T17:04:28.907Z,99.90
2022-08-18T17:06:57.342Z,99.90
2022-08-18T17:09:25.115Z,99.90
2022-08-18T17:14:25.527Z,99.90
2022-08-18T17:16:58.615Z,99.90
2022-08-18T17:19:30.034Z,99.90
2022-08-18T17:29:35.493Z,99.90
2022-08-18T17:32:06.378Z,99.90
2022-08-18T17:34:45.450Z,99.90
2022-08-18T17:37:16.135Z,99.90
2022-08-18T17:40:12.927Z,99.90
2022-08-18T17:45:11.743Z,99.90
2022-08-18T17:47:50.527Z,99.90
2022-08-18T17:50:49.409Z,99.90
2022-08-18T17:53:17.365Z,99.90
2022-08-18T17:56:35.396Z,99.90
2022-08-18T17:59:45.921Z,99.90
2022-08-18T18:02:31.379Z,99.90
2022-08-18T18:05:06.273Z,99.90
2022-08-18T18:07:38.477Z,99.90
2022-08-18T18:10:22.546Z,99.90
2022-08-18T18:13:08.941Z,99.90
2022-08-18T18:15:40.537Z,99.90
2022-08-18T18:18:21.754Z,99.90
2022-08-18T18:21:21.905Z,99.90
2022-08-18T18:23:59.281Z,99.90
2022-08-18T18:26:34.901Z,99.90
2022-08-18T18:29:37.751Z,99.90
2022-08-18T18:32:32.660Z,99.90
2022-08-18T18:35:15.366Z,99.90
2022-08-18T18:37:58.396Z,99.90
2022-08-18T18:40:53.716Z,99.90
2022-08-18T18:43:25.130Z,99.90
2022-08-18T18:46:30.440Z,99.90
2022-08-18T18:49:24.431Z,99.90
2022-08-18T18:52:03.213Z,99.90
2022-08-18T18:59:47.176Z,99.90
2022-08-18T19:02:34.600Z,99.90
2022-08-18T19:05:18.024Z,99.90
2022-08-18T19:08:04.031Z,99.90
2022-08-18T19:10:48.873Z,99.90
2022-08-18T19:13:41.885Z,99.90
2022-08-18T19:16:45.317Z,99.90
2022-08-18T19:19:38.273Z,99.90
2022-08-18T19:22:42.029Z,99.90
2022-08-18T19:29:13.378Z,99.90
2022-08-18T19:32:04.919Z,99.90
2022-08-18T19:34:36.720Z,99.90
2022-08-18T19:40:34.476Z,99.90
2022-08-18T19:43:15.700Z,99.90
2022-08-18T19:45:59.466Z,99.90
2022-08-18T19:48:39.852Z,99.90
2022-08-18T19:51:32.337Z,99.90
2022-08-18T19:54:26.970Z,99.90
2022-08-18T19:57:22.390Z,99.90
2022-08-18T20:00:15.251Z,99.90
2022-08-18T20:03:04.396Z,99.90
2022-08-18T20:05:53.470Z,99.90
2022-08-18T20:08:39.477Z,99.90
2022-08-18T20:11:13.099Z,99.90
2022-08-18T20:13:45.639Z,99.90
2022-08-18T20:18:51.771Z,99.90
2022-08-18T20:23:56.998Z,99.90
2022-08-18T20:26:39.200Z,99.90
2022-08-18T20:29:15.590Z,99.90
2022-08-18T20:32:05.016Z,99.90
2022-08-18T20:34:35.071Z,99.90
2022-08-18T20:37:08.444Z,99.90
2022-08-18T20:42:26.788Z,99.90
2022-08-18T20:44:59.766Z,99.90
2022-08-18T20:47:38.908Z,99.90
2022-08-18T20:50:21.367Z,99.90
2022-08-18T20:53:26.206Z,99.90
2022-08-18T20:56:43.307Z,99.90
2022-08-18T20:59:20.388Z,99.90
2022-08-18T21:02:03.554Z,99.90
2022-08-18T21:05:00.834Z,99.90
2022-08-18T21:07:36.374Z,99.90
2022-08-18T21:10:27.735Z,99.90
2022-08-18T21:12:57.409Z,99.90
2022-08-18T21:15:36.449Z,99.90
2022-08-18T21:18:08.820Z,99.90
2022-08-18T21:23:12.746Z,99.90
2022-08-18T21:25:53.878Z,99.90
2022-08-18T21:28:22.831Z,99.90
2022-08-18T21:31:42.144Z,99.90
2022-08-18T21:33:56.085Z,99.90
2022-08-18T21:39:05.240Z,99.90
2022-08-18T21:41:39.469Z,99.90
2022-08-18T21:44:28.357Z,99.90
2022-08-18T21:47:27.899Z,99.90
2022-08-18T21:50:08.507Z,99.90
2022-08-18T21:52:39.160Z,99.90
2022-08-18T21:55:19.400Z,99.90
2022-08-18T21:58:03.117Z,99.90
2022-08-18T22:00:35.266Z,99.90
2022-08-18T22:03:23.003Z,99.90
2022-08-18T22:06:22.041Z,99.90
2022-08-18T22:08:55.737Z,99.90
2022-08-18T22:12:00.717Z,99.90
2022-08-18T22:17:33.742Z,99.90
2022-08-18T22:20:38.370Z,99.90
2022-08-18T22:23:34.047Z,99.90
2022-08-18T22:26:12.535Z,99.90
2022-08-18T22:29:04.921Z,99.90
2022-08-18T22:31:44.240Z,99.90
2022-08-18T22:34:27.963Z,99.90
2022-08-18T22:37:05.900Z,99.90
2022-08-18T22:51:54.361Z,99.90
2022-08-18T22:54:22.588Z,99.90
2022-08-18T23:01:55.088Z,99.90
2022-08-18T23:04:25.567Z,99.90
2022-08-18T23:06:54.909Z,99.90
2022-08-18T23:09:24.953Z,99.90
2022-08-18T23:11:53.128Z,99.90
2022-08-18T23:16:48.485Z,99.90
2022-08-18T23:19:17.100Z,99.90
2022-08-18T23:21:45.035Z,99.90
2022-08-18T23:24:14.439Z,99.90
2022-08-18T23:31:42.162Z,99.90
2022-08-18T23:34:10.089Z,99.90
2022-08-18T23:41:39.038Z,99.90
2022-08-18T23:44:06.873Z,99.90
2022-08-18T23:46:35.197Z,99.90
2022-08-18T23:49:04.913Z,99.90
2022-08-18T23:51:42.720Z,99.90
2022-08-18T23:54:13.572Z,99.90
